»·PEaware :: N143VT KOTH-KYKM

N143VT :: KOTH-KYKM

FLIGHT INFORMATION

Flight Status: Arrived
Operator: Privately registered:
United States
More flights under this callsign
Pilot: Anonymous 16492 (16492)
Aircraft: BOMBARDIER BD-100 CHALLENGER 300
(CL30)
More flights by this aircraft type
Origin: KOTH North Bend Mun
United States
Destination: KYKM Yakima Air Term/Mcallister
United States
More flights between these airports :: More routes between these airports
Route: +LTJ V497 SUNED
File this flight plan on PilotEdge
Remarks:
Altitude:
(Current/Filed)
37,000ft
Speed:
(Current/Filed)
330kts
Departed: 10-Apr-18 07:56 PM
Arrived: 10-Apr-18 08:45 PM
Distance/Time
Traveled:
246nm/0:49
Distance/Time
To Go:
Arrived

Flight Plot

Page will automatically refresh every two minutes.

Flight plan parsing failed; only flown route is shown


Map Options




Map Legend


Flown Route
Filed Route
Departure Airport
Arrival Airport
Navaid (VOR, NDB)
Fix

Horizontal Profiles

Position Reports

Time Latitude Longitude Heading Altitude Ground
Speed
10-Apr-18 19:37 43.416334 -124.246284 59 24ft 0kts
10-Apr-18 19:38 43.416334 -124.246284 59 24ft 0kts
10-Apr-18 19:39 43.416334 -124.246284 59 24ft 0kts
10-Apr-18 19:40 43.416334 -124.246284 59 24ft 0kts
10-Apr-18 19:41 43.416334 -124.246284 59 24ft 0kts
10-Apr-18 19:42 43.416334 -124.246284 59 24ft 0kts
10-Apr-18 19:43 43.416334 -124.246284 59 24ft 0kts
10-Apr-18 19:44 43.416334 -124.246284 59 24ft 0kts
10-Apr-18 19:45 43.416334 -124.246284 59 24ft 0kts
10-Apr-18 19:46 43.416334 -124.246284 59 24ft 0kts
10-Apr-18 19:47 43.416334 -124.246284 59 24ft 0kts
10-Apr-18 19:48 43.416334 -124.246284 59 24ft 0kts
10-Apr-18 19:49 43.416673 -124.246173 1 24ft 0kts
10-Apr-18 19:50 43.418251 -124.246458 327 24ft 10kts
10-Apr-18 19:51 43.421115 -124.241926 59 24ft 17kts
10-Apr-18 19:52 43.421934 -124.240544 342 24ft 0kts
10-Apr-18 19:53 43.422475 -124.241699 239 24ft 0kts
10-Apr-18 19:54 43.422360 -124.241971 240 24ft 26kts
10-Apr-18 19:55 43.408155 -124.294501 281 3318ft 186kts
10-Apr-18 19:56 43.450669 -124.316698 54 7349ft 248kts
10-Apr-18 19:57 43.438732 -124.233405 117 12129ft 247kts
10-Apr-18 19:58 43.454997 -124.148729 22 16083ft 289kts
10-Apr-18 19:59 43.545116 -124.092618 21 17726ft 400kts
10-Apr-18 20:00 43.648417 -124.030178 20 21201ft 425kts
10-Apr-18 20:01 43.759241 -123.963672 20 23058ft 476kts
10-Apr-18 20:02 43.880212 -123.890835 20 25705ft 489kts
10-Apr-18 20:03 44.003650 -123.816236 19 28569ft 488kts
10-Apr-18 20:04 44.103896 -123.694746 48 31036ft 495kts
10-Apr-18 20:05 44.194139 -123.553667 47 33257ft 495kts
10-Apr-18 20:06 44.284919 -123.412682 47 35389ft 493kts
10-Apr-18 20:07 44.369853 -123.280400 48 36943ft 499kts
10-Apr-18 20:08 44.465989 -123.129948 48 36959ft 540kts
10-Apr-18 20:09 44.567955 -122.969525 48 36936ft 549kts
10-Apr-18 20:10 44.667079 -122.812664 48 36928ft 532kts
10-Apr-18 20:11 44.762543 -122.660766 48 36932ft 520kts
10-Apr-18 20:12 44.852741 -122.516470 48 36944ft 510kts
10-Apr-18 20:13 44.943738 -122.370184 48 36945ft 502kts
10-Apr-18 20:14 45.033883 -122.224554 49 36928ft 494kts
10-Apr-18 20:15 45.123229 -122.079400 50 36911ft 487kts
10-Apr-18 20:16 45.209228 -121.938933 50 36730ft 479kts
10-Apr-18 20:17 45.296209 -121.796151 50 34561ft 510kts
10-Apr-18 20:18 45.389391 -121.642420 49 32346ft 514kts
10-Apr-18 20:19 45.481617 -121.489405 49 29471ft 515kts
10-Apr-18 20:20 45.574156 -121.335038 50 25922ft 515kts
10-Apr-18 20:21 45.661753 -121.188142 50 24455ft 448kts
10-Apr-18 20:22 45.738006 -121.052938 53 21511ft 428kts
10-Apr-18 20:23 45.807061 -120.920235 53 18622ft 406kts
10-Apr-18 20:24 45.871028 -120.796309 53 15703ft 384kts
10-Apr-18 20:25 45.932313 -120.676949 53 12602ft 365kts
10-Apr-18 20:26 45.990717 -120.562666 52 11016ft 342kts
10-Apr-18 20:27 46.044382 -120.457280 52 10988ft 306kts
10-Apr-18 20:28 46.092252 -120.362940 52 10994ft 299kts
10-Apr-18 20:29 46.140743 -120.267050 53 10900ft 292kts
10-Apr-18 20:30 46.189507 -120.170253 52 8962ft 299kts
10-Apr-18 20:31 46.237175 -120.075326 52 7313ft 289kts
10-Apr-18 20:32 46.288615 -119.995845 5 6555ft 262kts
10-Apr-18 20:33 46.349098 -120.036178 324 4676ft 210kts
10-Apr-18 20:34 46.388807 -120.075374 320 4687ft 163kts
10-Apr-18 20:35 46.426879 -120.115863 319 4693ft 176kts
10-Apr-18 20:36 46.466601 -120.160241 309 4685ft 181kts
10-Apr-18 20:37 46.484859 -120.221122 290 3669ft 146kts
10-Apr-18 20:38 46.500231 -120.277999 290 3693ft 157kts
10-Apr-18 20:39 46.516623 -120.338670 290 3691ft 165kts
10-Apr-18 20:40 46.529933 -120.389762 289 3053ft 106kts
10-Apr-18 20:41 46.540557 -120.431876 289 2546ft 119kts
10-Apr-18 20:42 46.551752 -120.476525 289 1904ft 114kts
10-Apr-18 20:43 46.562398 -120.518912 289 1300ft 110kts
10-Apr-18 20:44 46.570088 -120.549148 312 1106ft 0kts
10-Apr-18 20:45 46.571981 -120.549842 4 1106ft 0kts
10-Apr-18 20:46 46.571981 -120.549842 4 1106ft 0kts
10-Apr-18 20:47 46.571981 -120.549842 4 1106ft 0kts

Navigation Log

Ident Type
Flight plan parsing failed, navigation log unavailable